sensor_id;sensor_type;location;lat;lon;timestamp;temperature;humidity
22966;DHT22;11649;48.090;9.754;2023-08-01T00:00:26;19.40;97.90
22966;DHT22;11649;48.090;9.754;2023-08-01T00:02:53;18.90;99.20
22966;DHT22;11649;48.090;9.754;2023-08-01T00:05:20;19.00;98.10
22966;DHT22;11649;48.090;9.754;2023-08-01T00:07:47;19.00;98.10
22966;DHT22;11649;48.090;9.754;2023-08-01T00:10:13;19.00;97.40
22966;DHT22;11649;48.090;9.754;2023-08-01T00:12:42;18.90;98.50
22966;DHT22;11649;48.090;9.754;2023-08-01T00:15:10;18.90;98.80
22966;DHT22;11649;48.090;9.754;2023-08-01T00:17:37;18.80;99.20
22966;DHT22;11649;48.090;9.754;2023-08-01T00:20:04;18.80;99.30
22966;DHT22;11649;48.090;9.754;2023-08-01T00:22:31;18.80;99.10
22966;DHT22;11649;48.090;9.754;2023-08-01T00:24:57;18.70;99.70
22966;DHT22;11649;48.090;9.754;2023-08-01T00:27:25;18.80;99.60
22966;DHT22;11649;48.090;9.754;2023-08-01T00:29:52;18.80;99.90
22966;DHT22;11649;48.090;9.754;2023-08-01T00:32:19;18.70;99.90
22966;DHT22;11649;48.090;9.754;2023-08-01T00:34:45;18.70;99.90
22966;DHT22;11649;48.090;9.754;2023-08-01T00:37:12;18.70;99.90
22966;DHT22;11649;48.090;9.754;2023-08-01T00:39:39;18.60;99.90
22966;DHT22;11649;48.090;9.754;2023-08-01T00:42:06;18.60;99.90
22966;DHT22;11649;48.090;9.754;2023-08-01T00:44:33;18.60;99.90
22966;DHT22;11649;48.090;9.754;2023-08-01T00:47:00;18.50;99.90
22966;DHT22;11649;48.090;9.754;2023-08-01T00:49:27;18.50;99.90
22966;DHT22;11649;48.090;9.754;2023-08-01T00:51:54;18.50;99.90
22966;DHT22;11649;48.090;9.754;2023-08-01T00:54:21;18.40;99.90
22966;DHT22;11649;48.090;9.754;2023-08-01T00:56:48;18.40;99.90
22966;DHT22;11649;48.090;9.754;2023-08-01T00:59:15;18.30;99.90
22966;DHT22;11649;48.090;9.754;2023-08-01T01:01:42;18.30;99.90
22966;DHT22;11649;48.090;9.754;2023-08-01T01:04:09;18.40;99.90
22966;DHT22;11649;48.090;9.754;2023-08-01T01:07:00;18.50;99.90
22966;DHT22;11649;48.090;9.754;2023-08-01T01:09:30;18.50;99.90
22966;DHT22;11649;48.090;9.754;2023-08-01T01:11:59;18.40;99.90
22966;DHT22;11649;48.090;9.754;2023-08-01T01:14:29;18.30;99.90
22966;DHT22;11649;48.090;9.754;2023-08-01T01:16:56;18.30;99.90
22966;DHT22;11649;48.090;9.754;2023-08-01T01:19:23;18.40;99.90
22966;DHT22;11649;48.090;9.754;2023-08-01T01:21:50;18.30;99.90
22966;DHT22;11649;48.090;9.754;2023-08-01T01:24:18;18.30;99.90
22966;DHT22;11649;48.090;9.754;2023-08-01T01:26:47;18.30;99.90
22966;DHT22;11649;48.090;9.754;2023-08-01T01:29:15;18.20;99.90
22966;DHT22;11649;48.090;9.754;2023-08-01T01:31:43;18.30;99.90
22966;DHT22;11649;48.090;9.754;2023-08-01T01:34:11;18.10;99.90
22966;DHT22;11649;48.090;9.754;2023-08-01T01:36:38;18.10;99.90
22966;DHT22;11649;48.090;9.754;2023-08-01T01:39:06;18.20;99.90
22966;DHT22;11649;48.090;9.754;2023-08-01T01:41:35;18.10;99.90
22966;DHT22;11649;48.090;9.754;2023-08-01T01:44:01;18.10;99.90
22966;DHT22;11649;48.090;9.754;2023-08-01T01:46:28;18.00;99.90
22966;DHT22;11649;48.090;9.754;2023-08-01T01:48:55;18.20;99.90
22966;DHT22;11649;48.090;9.754;2023-08-01T01:51:42;17.90;99.90
22966;DHT22;11649;48.090;9.754;2023-08-01T01:54:15;17.80;99.90
22966;DHT22;11649;48.090;9.754;2023-08-01T01:56:44;17.70;99.90
22966;DHT22;11649;48.090;9.754;2023-08-01T01:59:13;17.60;99.90
22966;DHT22;11649;48.090;9.754;2023-08-01T02:01:40;17.60;99.90
22966;DHT22;11649;48.090;9.754;2023-08-01T02:04:07;17.50;99.90
22966;DHT22;11649;48.090;9.754;2023-08-01T02:06:37;17.40;99.90
22966;DHT22;11649;48.090;9.754;2023-08-01T02:09:10;17.40;99.90
22966;DHT22;11649;48.090;9.754;2023-08-01T02:11:37;17.40;99.90
22966;DHT22;11649;48.090;9.754;2023-08-01T02:14:08;17.40;99.90
22966;DHT22;11649;48.090;9.754;2023-08-01T02:16:34;17.30;99.90
22966;DHT22;11649;48.090;9.754;2023-08-01T02:19:02;17.30;99.90
22966;DHT22;11649;48.090;9.754;2023-08-01T02:21:34;17.30;99.90
22966;DHT22;11649;48.090;9.754;2023-08-01T02:24:15;17.10;99.90
22966;DHT22;11649;48.090;9.754;2023-08-01T02:26:48;16.90;99.90
22966;DHT22;11649;48.090;9.754;2023-08-01T02:29:15;17.00;99.90
22966;DHT22;11649;48.090;9.754;2023-08-01T02:31:47;17.10;99.90
22966;DHT22;11649;48.090;9.754;2023-08-01T02:34:20;17.20;99.90
22966;DHT22;11649;48.090;9.754;2023-08-01T02:36:47;17.40;99.90
22966;DHT22;11649;48.090;9.754;2023-08-01T02:39:17;17.20;99.90
22966;DHT22;11649;48.090;9.754;2023-08-01T02:41:46;17.00;99.90
22966;DHT22;11649;48.090;9.754;2023-08-01T02:44:18;16.90;99.90
22966;DHT22;11649;48.090;9.754;2023-08-01T02:46:47;16.80;99.90
22966;DHT22;11649;48.090;9.754;2023-08-01T02:49:17;17.10;99.90
22966;DHT22;11649;48.090;9.754;2023-08-01T02:51:44;17.10;99.90
22966;DHT22;11649;48.090;9.754;2023-08-01T02:54:13;17.10;99.90
22966;DHT22;11649;48.090;9.754;2023-08-01T02:56:42;17.00;99.90
22966;DHT22;11649;48.090;9.754;2023-08-01T02:59:11;17.10;99.90
22966;DHT22;11649;48.090;9.754;2023-08-01T03:01:48;17.10;99.90
22966;DHT22;11649;48.090;9.754;2023-08-01T03:04:57;17.20;99.90
22966;DHT22;11649;48.090;9.754;2023-08-01T03:07:40;17.10;99.90
22966;DHT22;11649;48.090;9.754;2023-08-01T03:10:24;17.00;99.90
22966;DHT22;11649;48.090;9.754;2023-08-01T03:13:02;17.00;99.90
22966;DHT22;11649;48.090;9.754;2023-08-01T03:19:21;16.50;99.90
22966;DHT22;11649;48.090;9.754;2023-08-01T03:22:37;16.90;99.90
22966;DHT22;11649;48.090;9.754;2023-08-01T03:26:27;16.50;99.90
22966;DHT22;11649;48.090;9.754;2023-08-01T03:29:19;16.70;99.90
22966;DHT22;11649;48.090;9.754;2023-08-01T03:31:51;16.80;99.90
22966;DHT22;11649;48.090;9.754;2023-08-01T03:34:38;16.80;99.90
22966;DHT22;11649;48.090;9.754;2023-08-01T03:38:04;15.90;99.90
22966;DHT22;11649;48.090;9.754;2023-08-01T03:48:21;16.90;99.90
22966;DHT22;11649;48.090;9.754;2023-08-01T03:51:02;16.80;99.90
22966;DHT22;11649;48.090;9.754;2023-08-01T03:54:06;16.90;99.90
22966;DHT22;11649;48.090;9.754;2023-08-01T03:56:42;16.90;99.90
22966;DHT22;11649;48.090;9.754;2023-08-01T03:59:35;17.00;99.90
22966;DHT22;11649;48.090;9.754;2023-08-01T04:02:02;16.90;99.90
22966;DHT22;11649;48.090;9.754;2023-08-01T04:08:25;17.00;99.90
22966;DHT22;11649;48.090;9.754;2023-08-01T04:11:18;16.50;99.90
22966;DHT22;11649;48.090;9.754;2023-08-01T04:13:56;16.90;99.90
22966;DHT22;11649;48.090;9.754;2023-08-01T04:16:38;17.00;99.90
22966;DHT22;11649;48.090;9.754;2023-08-01T04:19:05;17.00;99.90
22966;DHT22;11649;48.090;9.754;2023-08-01T04:28:34;16.80;99.90
22966;DHT22;11649;48.090;9.754;2023-08-01T04:31:19;16.90;99.90
22966;DHT22;11649;48.090;9.754;2023-08-01T04:33:46;16.80;99.90
22966;DHT22;11649;48.090;9.754;2023-08-01T04:36:33;16.80;99.90
22966;DHT22;11649;48.090;9.754;2023-08-01T04:39:11;17.20;99.90
22966;DHT22;11649;48.090;9.754;2023-08-01T04:41:54;16.90;99.90
22966;DHT22;11649;48.090;9.754;2023-08-01T04:44:21;16.90;99.90
22966;DHT22;11649;48.090;9.754;2023-08-01T04:46:51;16.90;99.90
22966;DHT22;11649;48.090;9.754;2023-08-01T04:49:25;16.90;99.90
22966;DHT22;11649;48.090;9.754;2023-08-01T04:51:52;17.10;99.90
22966;DHT22;11649;48.090;9.754;2023-08-01T04:54:32;17.90;99.90
22966;DHT22;11649;48.090;9.754;2023-08-01T04:57:00;16.80;99.90
22966;DHT22;11649;48.090;9.754;2023-08-01T04:59:29;16.90;99.90
22966;DHT22;11649;48.090;9.754;2023-08-01T05:02:04;16.90;99.90
22966;DHT22;11649;48.090;9.754;2023-08-01T05:04:53;17.00;99.90
22966;DHT22;11649;48.090;9.754;2023-08-01T05:07:20;16.90;99.90
22966;DHT22;11649;48.090;9.754;2023-08-01T05:09:47;17.00;99.90
22966;DHT22;11649;48.090;9.754;2023-08-01T05:12:14;17.50;99.90
22966;DHT22;11649;48.090;9.754;2023-08-01T05:14:41;17.00;99.90
22966;DHT22;11649;48.090;9.754;2023-08-01T05:17:14;16.70;99.90
22966;DHT22;11649;48.090;9.754;2023-08-01T05:20:30;16.70;99.90
22966;DHT22;11649;48.090;9.754;2023-08-01T05:23:27;16.70;99.90
22966;DHT22;11649;48.090;9.754;2023-08-01T05:26:00;16.50;99.90
22966;DHT22;11649;48.090;9.754;2023-08-01T05:28:36;16.60;99.90
22966;DHT22;11649;48.090;9.754;2023-08-01T05:31:04;16.60;99.90
22966;DHT22;11649;48.090;9.754;2023-08-01T05:44:17;16.40;99.90
22966;DHT22;11649;48.090;9.754;2023-08-01T05:46:45;16.60;99.90
22966;DHT22;11649;48.090;9.754;2023-08-01T05:49:46;16.50;99.90
22966;DHT22;11649;48.090;9.754;2023-08-01T05:52:36;16.70;99.90
22966;DHT22;11649;48.090;9.754;2023-08-01T05:55:06;15.40;99.90
22966;DHT22;11649;48.090;9.754;2023-08-01T05:57:46;16.60;99.90
22966;DHT22;11649;48.090;9.754;2023-08-01T06:00:25;16.60;99.90
22966;DHT22;11649;48.090;9.754;2023-08-01T06:02:57;16.50;99.90
22966;DHT22;11649;48.090;9.754;2023-08-01T06:05:25;16.70;99.90
22966;DHT22;11649;48.090;9.754;2023-08-01T06:07:51;16.50;99.90
22966;DHT22;11649;48.090;9.754;2023-08-01T06:10:18;17.10;99.90
22966;DHT22;11649;48.090;9.754;2023-08-01T06:12:45;16.40;99.90
22966;DHT22;11649;48.090;9.754;2023-08-01T06:15:13;16.20;99.90
22966;DHT22;11649;48.090;9.754;2023-08-01T06:17:40;16.00;99.90
22966;DHT22;11649;48.090;9.754;2023-08-01T06:20:07;15.90;99.90
22966;DHT22;11649;48.090;9.754;2023-08-01T06:22:34;15.80;99.90
22966;DHT22;11649;48.090;9.754;2023-08-01T06:25:01;15.70;99.90
22966;DHT22;11649;48.090;9.754;2023-08-01T06:27:27;15.70;99.90
22966;DHT22;11649;48.090;9.754;2023-08-01T06:29:54;15.70;99.90
22966;DHT22;11649;48.090;9.754;2023-08-01T06:32:21;16.00;99.90
22966;DHT22;11649;48.090;9.754;2023-08-01T06:34:48;15.70;99.90
22966;DHT22;11649;48.090;9.754;2023-08-01T06:37:15;15.60;99.90
22966;DHT22;11649;48.090;9.754;2023-08-01T06:39:41;15.70;99.90
22966;DHT22;11649;48.090;9.754;2023-08-01T06:42:08;15.80;99.90
22966;DHT22;11649;48.090;9.754;2023-08-01T06:44:36;15.90;99.90
22966;DHT22;11649;48.090;9.754;2023-08-01T06:47:03;16.10;99.90
22966;DHT22;11649;48.090;9.754;2023-08-01T06:49:30;16.10;99.90
22966;DHT22;11649;48.090;9.754;2023-08-01T06:51:57;16.20;99.90
22966;DHT22;11649;48.090;9.754;2023-08-01T06:54:23;16.20;99.90
22966;DHT22;11649;48.090;9.754;2023-08-01T06:56:50;16.10;99.90
22966;DHT22;11649;48.090;9.754;2023-08-01T06:59:17;16.20;99.90
22966;DHT22;11649;48.090;9.754;2023-08-01T07:01:44;16.50;99.90
22966;DHT22;11649;48.090;9.754;2023-08-01T07:04:11;16.20;99.90
22966;DHT22;11649;48.090;9.754;2023-08-01T07:06:38;16.30;99.90
22966;DHT22;11649;48.090;9.754;2023-08-01T07:09:06;16.20;99.90
22966;DHT22;11649;48.090;9.754;2023-08-01T07:11:33;16.30;99.90
22966;DHT22;11649;48.090;9.754;2023-08-01T07:14:00;16.30;99.90
22966;DHT22;11649;48.090;9.754;2023-08-01T07:16:26;16.50;99.90
22966;DHT22;11649;48.090;9.754;2023-08-01T07:18:55;16.30;99.90
22966;DHT22;11649;48.090;9.754;2023-08-01T07:21:22;16.30;99.90
22966;DHT22;11649;48.090;9.754;2023-08-01T07:23:49;16.20;99.90
22966;DHT22;11649;48.090;9.754;2023-08-01T07:26:16;16.30;99.90
22966;DHT22;11649;48.090;9.754;2023-08-01T07:28:42;16.30;99.90
22966;DHT22;11649;48.090;9.754;2023-08-01T07:31:09;16.30;99.90
22966;DHT22;11649;48.090;9.754;2023-08-01T07:33:36;16.30;99.90
22966;DHT22;11649;48.090;9.754;2023-08-01T07:36:04;16.30;99.90
22966;DHT22;11649;48.090;9.754;2023-08-01T07:38:31;16.40;99.90
22966;DHT22;11649;48.090;9.754;2023-08-01T07:41:05;16.50;99.90
22966;DHT22;11649;48.090;9.754;2023-08-01T07:43:33;16.40;99.90
22966;DHT22;11649;48.090;9.754;2023-08-01T07:46:00;16.50;99.90
22966;DHT22;11649;48.090;9.754;2023-08-01T07:48:28;16.50;99.90
22966;DHT22;11649;48.090;9.754;2023-08-01T07:50:55;16.60;99.90
22966;DHT22;11649;48.090;9.754;2023-08-01T07:53:22;16.50;99.90
22966;DHT22;11649;48.090;9.754;2023-08-01T07:55:51;16.50;99.90
22966;DHT22;11649;48.090;9.754;2023-08-01T07:58:23;16.50;99.90
22966;DHT22;11649;48.090;9.754;2023-08-01T08:00:50;16.30;99.90
22966;DHT22;11649;48.090;9.754;2023-08-01T08:03:16;16.10;99.90
22966;DHT22;11649;48.090;9.754;2023-08-01T08:05:43;16.10;99.90
22966;DHT22;11649;48.090;9.754;2023-08-01T08:08:10;15.90;99.90
22966;DHT22;11649;48.090;9.754;2023-08-01T08:10:37;15.80;99.90
22966;DHT22;11649;48.090;9.754;2023-08-01T08:13:08;15.80;99.90
22966;DHT22;11649;48.090;9.754;2023-08-01T08:15:34;15.90;99.90
22966;DHT22;11649;48.090;9.754;2023-08-01T08:18:02;15.90;99.90
22966;DHT22;11649;48.090;9.754;2023-08-01T08:20:44;16.00;99.90
22966;DHT22;11649;48.090;9.754;2023-08-01T08:23:12;16.20;99.90
22966;DHT22;11649;48.090;9.754;2023-08-01T08:25:42;16.30;99.90
22966;DHT22;11649;48.090;9.754;2023-08-01T08:28:12;16.40;99.90
22966;DHT22;11649;48.090;9.754;2023-08-01T08:30:39;16.40;99.90
22966;DHT22;11649;48.090;9.754;2023-08-01T08:33:06;16.40;99.90
22966;DHT22;11649;48.090;9.754;2023-08-01T08:35:34;16.50;99.90
22966;DHT22;11649;48.090;9.754;2023-08-01T08:38:03;16.60;99.90
22966;DHT22;11649;48.090;9.754;2023-08-01T08:40:33;16.60;99.90
22966;DHT22;11649;48.090;9.754;2023-08-01T08:43:02;16.50;99.90
22966;DHT22;11649;48.090;9.754;2023-08-01T08:45:33;16.40;99.90
22966;DHT22;11649;48.090;9.754;2023-08-01T08:48:02;16.00;99.90
22966;DHT22;11649;48.090;9.754;2023-08-01T08:50:30;16.10;99.90
22966;DHT22;11649;48.090;9.754;2023-08-01T08:52:58;16.00;99.90
22966;DHT22;11649;48.090;9.754;2023-08-01T08:55:25;16.10;99.90
22966;DHT22;11649;48.090;9.754;2023-08-01T08:57:53;16.00;99.90
22966;DHT22;11649;48.090;9.754;2023-08-01T09:00:21;16.00;99.90
22966;DHT22;11649;48.090;9.754;2023-08-01T09:02:48;15.80;99.90
22966;DHT22;11649;48.090;9.754;2023-08-01T09:05:15;15.30;99.90
22966;DHT22;11649;48.090;9.754;2023-08-01T09:07:43;15.30;99.90
22966;DHT22;11649;48.090;9.754;2023-08-01T09:10:13;15.30;99.90
22966;DHT22;11649;48.090;9.754;2023-08-01T09:12:39;15.30;99.90
22966;DHT22;11649;48.090;9.754;2023-08-01T09:15:07;15.30;99.90
22966;DHT22;11649;48.090;9.754;2023-08-01T09:17:35;15.30;99.90
22966;DHT22;11649;48.090;9.754;2023-08-01T09:20:06;15.20;99.90
22966;DHT22;11649;48.090;9.754;2023-08-01T09:22:46;15.20;99.90
22966;DHT22;11649;48.090;9.754;2023-08-01T09:25:13;15.10;99.90
22966;DHT22;11649;48.090;9.754;2023-08-01T09:27:40;14.90;99.90
22966;DHT22;11649;48.090;9.754;2023-08-01T09:30:12;14.80;99.90
22966;DHT22;11649;48.090;9.754;2023-08-01T09:32:54;14.80;99.90
22966;DHT22;11649;48.090;9.754;2023-08-01T09:35:22;14.80;99.90
22966;DHT22;11649;48.090;9.754;2023-08-01T09:37:49;14.80;99.90
22966;DHT22;11649;48.090;9.754;2023-08-01T09:40:16;14.60;99.90
22966;DHT22;11649;48.090;9.754;2023-08-01T09:42:44;14.70;99.90
22966;DHT22;11649;48.090;9.754;2023-08-01T09:45:15;14.80;99.90
22966;DHT22;11649;48.090;9.754;2023-08-01T09:47:43;14.70;99.90
22966;DHT22;11649;48.090;9.754;2023-08-01T09:50:20;14.80;99.90
22966;DHT22;11649;48.090;9.754;2023-08-01T09:52:47;14.80;99.90
22966;DHT22;11649;48.090;9.754;2023-08-01T09:55:32;14.70;99.90
22966;DHT22;11649;48.090;9.754;2023-08-01T09:57:59;14.80;99.90
22966;DHT22;11649;48.090;9.754;2023-08-01T10:00:28;15.00;99.90
22966;DHT22;11649;48.090;9.754;2023-08-01T10:02:57;14.90;99.90
22966;DHT22;11649;48.090;9.754;2023-08-01T10:05:32;15.50;99.90
22966;DHT22;11649;48.090;9.754;2023-08-01T10:08:00;15.00;99.90
22966;DHT22;11649;48.090;9.754;2023-08-01T10:10:28;15.00;99.90
22966;DHT22;11649;48.090;9.754;2023-08-01T10:12:56;15.00;99.90
22966;DHT22;11649;48.090;9.754;2023-08-01T10:15:24;15.10;99.90
22966;DHT22;11649;48.090;9.754;2023-08-01T10:17:52;15.10;99.90
22966;DHT22;11649;48.090;9.754;2023-08-01T10:20:20;15.10;99.90
22966;DHT22;11649;48.090;9.754;2023-08-01T10:22:49;15.10;99.90
22966;DHT22;11649;48.090;9.754;2023-08-01T10:25:18;15.20;99.90
22966;DHT22;11649;48.090;9.754;2023-08-01T10:27:57;15.20;99.90
22966;DHT22;11649;48.090;9.754;2023-08-01T10:30:28;15.20;99.90
22966;DHT22;11649;48.090;9.754;2023-08-01T10:32:57;15.20;99.90
22966;DHT22;11649;48.090;9.754;2023-08-01T10:35:37;15.30;99.90
22966;DHT22;11649;48.090;9.754;2023-08-01T10:38:12;15.50;99.90
22966;DHT22;11649;48.090;9.754;2023-08-01T10:40:41;15.50;99.90
22966;DHT22;11649;48.090;9.754;2023-08-01T10:43:24;15.60;99.90
22966;DHT22;11649;48.090;9.754;2023-08-01T10:46:04;15.50;99.90
22966;DHT22;11649;48.090;9.754;2023-08-01T10:48:52;15.50;99.90
22966;DHT22;11649;48.090;9.754;2023-08-01T10:51:19;15.50;99.90
22966;DHT22;11649;48.090;9.754;2023-08-01T10:53:46;15.70;99.90
22966;DHT22;11649;48.090;9.754;2023-08-01T10:56:19;15.80;99.90
22966;DHT22;11649;48.090;9.754;2023-08-01T10:58:47;15.90;99.90
22966;DHT22;11649;48.090;9.754;2023-08-01T11:01:14;16.30;99.90
22966;DHT22;11649;48.090;9.754;2023-08-01T11:03:41;16.50;99.90
22966;DHT22;11649;48.090;9.754;2023-08-01T11:06:09;16.60;99.90
22966;DHT22;11649;48.090;9.754;2023-08-01T11:08:37;16.50;99.90
22966;DHT22;11649;48.090;9.754;2023-08-01T11:11:05;16.70;99.90
22966;DHT22;11649;48.090;9.754;2023-08-01T11:13:33;16.60;99.90
22966;DHT22;11649;48.090;9.754;2023-08-01T11:16:03;16.80;99.90
22966;DHT22;11649;48.090;9.754;2023-08-01T11:18:42;16.50;99.90
22966;DHT22;11649;48.090;9.754;2023-08-01T11:21:09;16.20;99.90
22966;DHT22;11649;48.090;9.754;2023-08-01T11:23:36;16.20;99.90
22966;DHT22;11649;48.090;9.754;2023-08-01T11:26:07;16.40;99.90
22966;DHT22;11649;48.090;9.754;2023-08-01T11:28:35;16.50;99.90
22966;DHT22;11649;48.090;9.754;2023-08-01T11:31:13;16.80;99.90
22966;DHT22;11649;48.090;9.754;2023-08-01T11:33:40;16.90;99.90
22966;DHT22;11649;48.090;9.754;2023-08-01T11:36:08;17.20;99.90
22966;DHT22;11649;48.090;9.754;2023-08-01T11:38:35;17.60;99.90
22966;DHT22;11649;48.090;9.754;2023-08-01T11:41:04;17.80;99.90
22966;DHT22;11649;48.090;9.754;2023-08-01T11:43:41;17.90;99.90
22966;DHT22;11649;48.090;9.754;2023-08-01T11:46:08;17.70;99.90
22966;DHT22;11649;48.090;9.754;2023-08-01T11:48:44;17.60;99.90
22966;DHT22;11649;48.090;9.754;2023-08-01T11:51:11;17.40;99.90
22966;DHT22;11649;48.090;9.754;2023-08-01T11:53:38;17.30;99.90
22966;DHT22;11649;48.090;9.754;2023-08-01T11:56:06;17.20;99.90
22966;DHT22;11649;48.090;9.754;2023-08-01T11:58:35;17.30;99.90
22966;DHT22;11649;48.090;9.754;2023-08-01T12:03:41;17.20;99.90
22966;DHT22;11649;48.090;9.754;2023-08-01T12:06:08;17.20;99.90
22966;DHT22;11649;48.090;9.754;2023-08-01T12:08:35;17.30;99.90
22966;DHT22;11649;48.090;9.754;2023-08-01T12:11:02;17.40;99.90
22966;DHT22;11649;48.090;9.754;2023-08-01T12:13:29;17.70;99.90
22966;DHT22;11649;48.090;9.754;2023-08-01T12:15:57;18.00;99.90
22966;DHT22;11649;48.090;9.754;2023-08-01T12:18:28;18.20;99.90
22966;DHT22;11649;48.090;9.754;2023-08-01T12:21:15;18.60;99.90
22966;DHT22;11649;48.090;9.754;2023-08-01T12:23:42;18.90;99.90
22966;DHT22;11649;48.090;9.754;2023-08-01T12:26:09;19.30;99.90
22966;DHT22;11649;48.090;9.754;2023-08-01T12:28:36;19.70;99.90
22966;DHT22;11649;48.090;9.754;2023-08-01T12:31:03;19.90;99.90
22966;DHT22;11649;48.090;9.754;2023-08-01T12:33:31;19.70;99.90
22966;DHT22;11649;48.090;9.754;2023-08-01T12:36:02;19.70;99.90
22966;DHT22;11649;48.090;9.754;2023-08-01T12:38:30;19.40;99.90
22966;DHT22;11649;48.090;9.754;2023-08-01T12:40:56;19.20;99.90
22966;DHT22;11649;48.090;9.754;2023-08-01T12:43:23;19.00;99.90
22966;DHT22;11649;48.090;9.754;2023-08-01T12:45:50;18.80;99.90
22966;DHT22;11649;48.090;9.754;2023-08-01T12:48:21;18.70;99.90
22966;DHT22;11649;48.090;9.754;2023-08-01T12:50:48;18.50;99.90
22966;DHT22;11649;48.090;9.754;2023-08-01T12:53:15;18.40;99.90
22966;DHT22;11649;48.090;9.754;2023-08-01T12:55:46;18.30;99.90
22966;DHT22;11649;48.090;9.754;2023-08-01T12:58:14;17.90;99.90
22966;DHT22;11649;48.090;9.754;2023-08-01T13:00:41;17.60;99.90
22966;DHT22;11649;48.090;9.754;2023-08-01T13:03:08;17.00;99.90
22966;DHT22;11649;48.090;9.754;2023-08-01T13:05:37;16.40;99.90
22966;DHT22;11649;48.090;9.754;2023-08-01T13:08:05;16.30;99.90
22966;DHT22;11649;48.090;9.754;2023-08-01T13:10:33;15.70;99.90
22966;DHT22;11649;48.090;9.754;2023-08-01T13:13:00;14.90;99.90
22966;DHT22;11649;48.090;9.754;2023-08-01T13:15:27;14.10;99.90
22966;DHT22;11649;48.090;9.754;2023-08-01T13:17:54;13.30;99.90
22966;DHT22;11649;48.090;9.754;2023-08-01T13:20:21;13.70;99.90
22966;DHT22;11649;48.090;9.754;2023-08-01T13:22:51;14.10;99.90
22966;DHT22;11649;48.090;9.754;2023-08-01T13:25:18;14.30;99.90
22966;DHT22;11649;48.090;9.754;2023-08-01T13:27:45;14.50;99.90
22966;DHT22;11649;48.090;9.754;2023-08-01T13:30:12;14.60;99.90
22966;DHT22;11649;48.090;9.754;2023-08-01T13:32:45;14.50;99.90
22966;DHT22;11649;48.090;9.754;2023-08-01T13:35:13;14.60;99.90
22966;DHT22;11649;48.090;9.754;2023-08-01T13:37:40;14.70;99.90
22966;DHT22;11649;48.090;9.754;2023-08-01T13:40:07;14.60;99.90
22966;DHT22;11649;48.090;9.754;2023-08-01T13:42:34;14.60;99.90
22966;DHT22;11649;48.090;9.754;2023-08-01T13:45:01;14.60;99.90
22966;DHT22;11649;48.090;9.754;2023-08-01T13:47:28;14.60;99.90
22966;DHT22;11649;48.090;9.754;2023-08-01T13:49:55;14.70;99.90
22966;DHT22;11649;48.090;9.754;2023-08-01T13:52:22;14.80;99.90
22966;DHT22;11649;48.090;9.754;2023-08-01T13:54:48;14.70;99.90
22966;DHT22;11649;48.090;9.754;2023-08-01T13:57:15;14.60;99.90
22966;DHT22;11649;48.090;9.754;2023-08-01T13:59:42;14.30;99.90
22966;DHT22;11649;48.090;9.754;2023-08-01T14:02:11;14.00;99.90
22966;DHT22;11649;48.090;9.754;2023-08-01T14:04:38;14.00;99.90
22966;DHT22;11649;48.090;9.754;2023-08-01T14:07:05;14.00;99.90
22966;DHT22;11649;48.090;9.754;2023-08-01T14:09:31;13.90;99.90
22966;DHT22;11649;48.090;9.754;2023-08-01T14:11:59;14.00;99.90
22966;DHT22;11649;48.090;9.754;2023-08-01T14:14:27;14.00;99.90
22966;DHT22;11649;48.090;9.754;2023-08-01T14:16:54;13.90;99.90
22966;DHT22;11649;48.090;9.754;2023-08-01T14:19:21;13.90;99.90
22966;DHT22;11649;48.090;9.754;2023-08-01T14:21:48;13.90;99.90
22966;DHT22;11649;48.090;9.754;2023-08-01T14:24:15;13.90;99.90
22966;DHT22;11649;48.090;9.754;2023-08-01T14:26:42;14.00;99.90
22966;DHT22;11649;48.090;9.754;2023-08-01T14:29:09;14.00;99.90
22966;DHT22;11649;48.090;9.754;2023-08-01T14:31:36;13.90;99.90
22966;DHT22;11649;48.090;9.754;2023-08-01T14:34:03;13.90;99.90
22966;DHT22;11649;48.090;9.754;2023-08-01T14:36:29;14.00;99.90
22966;DHT22;11649;48.090;9.754;2023-08-01T14:38:56;14.00;99.90
22966;DHT22;11649;48.090;9.754;2023-08-01T14:41:32;14.10;99.90
22966;DHT22;11649;48.090;9.754;2023-08-01T14:44:03;14.30;99.90
22966;DHT22;11649;48.090;9.754;2023-08-01T14:46:29;14.60;99.90
22966;DHT22;11649;48.090;9.754;2023-08-01T14:48:56;14.70;99.90
22966;DHT22;11649;48.090;9.754;2023-08-01T14:51:23;14.70;99.90
22966;DHT22;11649;48.090;9.754;2023-08-01T14:53:50;14.70;99.90
22966;DHT22;11649;48.090;9.754;2023-08-01T14:56:17;14.90;99.90
22966;DHT22;11649;48.090;9.754;2023-08-01T14:58:43;15.00;99.90
22966;DHT22;11649;48.090;9.754;2023-08-01T15:01:17;15.30;99.90
22966;DHT22;11649;48.090;9.754;2023-08-01T15:03:45;15.80;99.90
22966;DHT22;11649;48.090;9.754;2023-08-01T15:06:12;15.90;99.90
22966;DHT22;11649;48.090;9.754;2023-08-01T15:08:41;16.00;99.90
22966;DHT22;11649;48.090;9.754;2023-08-01T15:11:08;17.20;99.90
22966;DHT22;11649;48.090;9.754;2023-08-01T15:13:35;18.40;99.90
22966;DHT22;11649;48.090;9.754;2023-08-01T15:16:02;19.00;99.90
22966;DHT22;11649;48.090;9.754;2023-08-01T15:18:29;19.10;99.90
22966;DHT22;11649;48.090;9.754;2023-08-01T15:20:56;19.30;99.90
22966;DHT22;11649;48.090;9.754;2023-08-01T15:23:23;19.30;99.90
22966;DHT22;11649;48.090;9.754;2023-08-01T15:25:54;19.60;99.90
22966;DHT22;11649;48.090;9.754;2023-08-01T15:28:23;19.40;99.90
22966;DHT22;11649;48.090;9.754;2023-08-01T15:31:08;19.70;99.90
22966;DHT22;11649;48.090;9.754;2023-08-01T15:33:38;19.70;99.90
22966;DHT22;11649;48.090;9.754;2023-08-01T15:36:06;20.00;99.90
22966;DHT22;11649;48.090;9.754;2023-08-01T15:38:35;20.20;99.90
22966;DHT22;11649;48.090;9.754;2023-08-01T15:41:02;20.20;99.90
22966;DHT22;11649;48.090;9.754;2023-08-01T15:43:36;20.10;99.90
22966;DHT22;11649;48.090;9.754;2023-08-01T15:46:04;20.20;99.90
22966;DHT22;11649;48.090;9.754;2023-08-01T15:48:33;19.60;99.90
22966;DHT22;11649;48.090;9.754;2023-08-01T15:51:02;19.80;99.90
22966;DHT22;11649;48.090;9.754;2023-08-01T15:53:29;19.60;99.90
22966;DHT22;11649;48.090;9.754;2023-08-01T15:56:04;19.10;99.90
22966;DHT22;11649;48.090;9.754;2023-08-01T15:58:31;18.70;99.90
22966;DHT22;11649;48.090;9.754;2023-08-01T16:00:59;18.40;99.90
22966;DHT22;11649;48.090;9.754;2023-08-01T16:03:26;18.20;99.90
22966;DHT22;11649;48.090;9.754;2023-08-01T16:05:54;18.10;99.90
22966;DHT22;11649;48.090;9.754;2023-08-01T16:08:21;18.10;99.90
22966;DHT22;11649;48.090;9.754;2023-08-01T16:10:48;18.00;99.90
22966;DHT22;11649;48.090;9.754;2023-08-01T16:13:15;17.80;99.90
22966;DHT22;11649;48.090;9.754;2023-08-01T16:15:41;17.70;99.90
22966;DHT22;11649;48.090;9.754;2023-08-01T16:18:09;17.60;99.90
22966;DHT22;11649;48.090;9.754;2023-08-01T16:20:36;17.70;99.90
22966;DHT22;11649;48.090;9.754;2023-08-01T16:23:03;17.60;99.90
22966;DHT22;11649;48.090;9.754;2023-08-01T16:25:31;17.60;99.90